A12 weather

Wheeler Field
Western Australia, Australia

Public forecast

Using degrees Celsius for public forecast. Weather courtesy of forecast.io.

METAR (pilot weather report)

Closest report is Perth Jandakot Airport, 41.7 nm (77.2 km) N. Retrieved 2019/03/21 05:00 UTC (9 minutes ago):

YPJT 210500Z AUTO 27009KT 9999 // NCD 30/19 Q1009 RF00.0/000.0

TAF (pilot weather forecast)

Forecast is more than 12 hours old.

Closest forecast is Perth Jandakot Airport, 41.7 nm (77.2 km) N. Retrieved 2019/03/20 00:00 UTC (1 day ago):

TAF YPJT 202215Z 2100/2118 10010KT CAVOK FM210100 VRB03KT CAVOK FM210500 27013KT CAVOK FM211200 15008KT CAVOK